createdAt,value
2023-11-24T00:04:00.710Z,76.12
2023-11-24T00:09:03.097Z,75.85
2023-11-24T00:14:06.175Z,75.41
2023-11-24T00:19:11.849Z,75.95
2023-11-24T00:24:15.374Z,76.18
2023-11-24T00:29:17.600Z,76.69
2023-11-24T00:34:20.147Z,76.16
2023-11-24T00:39:22.816Z,77.03
2023-11-24T00:44:25.221Z,75.53
2023-11-24T00:49:27.460Z,76.21
2023-11-24T00:54:29.651Z,76.45
2023-11-24T00:59:32.497Z,76.77
2023-11-24T01:04:35.256Z,77.55
2023-11-24T01:09:38.299Z,77.86
2023-11-24T01:14:40.775Z,78.11
2023-11-24T01:19:43.807Z,78.58
2023-11-24T01:24:46.354Z,78.66
2023-11-24T01:29:48.707Z,79.26
2023-11-24T01:34:51.324Z,79.37
2023-11-24T01:39:54.656Z,79.84
2023-11-24T01:44:56.993Z,80.31
2023-11-24T01:49:59.396Z,79.99
2023-11-24T01:55:05.677Z,79.73
2023-11-24T02:00:14.186Z,79.85
2023-11-24T02:05:19.287Z,79.79
2023-11-24T02:10:21.899Z,80.20
2023-11-24T02:15:24.795Z,79.96
2023-11-24T02:20:27.699Z,79.57
2023-11-24T02:25:29.900Z,80.06
2023-11-24T02:30:32.575Z,80.01
2023-11-24T02:35:35.407Z,80.13
2023-11-24T02:40:38.329Z,80.54
2023-11-24T02:45:41.892Z,80.58
2023-11-24T02:50:44.731Z,80.99
2023-11-24T02:55:47.130Z,80.81
2023-11-24T03:00:50.179Z,80.90
2023-11-24T03:05:52.411Z,80.79
2023-11-24T03:10:55.308Z,80.75
2023-11-24T03:15:57.513Z,80.76
2023-11-24T03:21:00.045Z,80.68
2023-11-24T03:26:04.116Z,80.19
2023-11-24T03:31:06.587Z,80.37
2023-11-24T03:36:09.055Z,80.00
2023-11-24T03:41:11.588Z,80.11
2023-11-24T03:46:13.919Z,80.33
2023-11-24T03:51:20.332Z,79.43
2023-11-24T03:56:22.503Z,79.95
2023-11-24T04:01:25.030Z,80.64
2023-11-24T04:06:27.314Z,80.94
2023-11-24T04:11:29.643Z,80.96
2023-11-24T04:16:32.765Z,81.40
2023-11-24T04:21:35.743Z,81.78
2023-11-24T04:26:37.949Z,81.95
2023-11-24T04:31:40.142Z,81.90
2023-11-24T04:36:42.408Z,82.98
2023-11-24T04:41:47.948Z,82.38
2023-11-24T04:46:50.953Z,82.52
2023-11-24T04:51:53.671Z,83.88
2023-11-24T04:56:57.788Z,83.80
2023-11-24T05:02:00.323Z,84.02
2023-11-24T05:07:02.794Z,84.03
2023-11-24T05:12:05.235Z,84.54
2023-11-24T05:17:07.852Z,83.52
2023-11-24T05:22:10.269Z,83.83
2023-11-24T05:27:13.087Z,84.30
2023-11-24T05:32:15.293Z,83.85
2023-11-24T05:37:17.383Z,84.18
2023-11-24T05:42:19.598Z,84.37
2023-11-24T05:47:21.824Z,83.87
2023-11-24T05:52:24.985Z,84.10
2023-11-24T05:57:27.510Z,84.80
2023-11-24T06:02:29.614Z,84.61
2023-11-24T06:07:31.633Z,84.38
2023-11-24T06:12:33.945Z,84.25
2023-11-24T06:17:37.204Z,83.12
2023-11-24T06:22:39.411Z,83.01
2023-11-24T06:27:41.711Z,83.14
2023-11-24T06:32:46.928Z,82.57
2023-11-24T06:37:49.600Z,82.48
2023-11-24T06:42:51.873Z,82.39
2023-11-24T06:47:54.265Z,82.98
2023-11-24T06:52:56.626Z,82.45
2023-11-24T06:58:00.380Z,81.74
2023-11-24T07:03:02.485Z,82.73
2023-11-24T07:08:05.132Z,82.74
2023-11-24T07:13:08.732Z,83.06
2023-11-24T07:18:11.118Z,83.08
2023-11-24T07:23:13.628Z,83.07
2023-11-24T07:28:16.281Z,83.20
2023-11-24T07:33:18.885Z,83.44
2023-11-24T07:38:21.464Z,84.03
2023-11-24T07:43:24.088Z,83.79
2023-11-24T07:48:26.284Z,83.41
2023-11-24T07:53:28.757Z,82.62
2023-11-24T07:58:31.156Z,82.77
2023-11-24T08:03:34.594Z,83.22
2023-11-24T08:08:36.839Z,82.68
2023-11-24T08:13:39.094Z,83.00
2023-11-24T08:18:42.059Z,84.12
2023-11-24T08:23:45.221Z,81.67
2023-11-24T08:28:47.624Z,81.96
2023-11-24T08:33:52.665Z,81.29
2023-11-24T08:38:54.817Z,77.40
2023-11-24T08:43:57.072Z,79.13
2023-11-24T08:48:59.401Z,74.87
2023-11-24T08:54:01.780Z,76.50
2023-11-24T08:59:05.066Z,73.58
2023-11-24T09:04:07.653Z,73.36
2023-11-24T09:09:10.498Z,69.88
2023-11-24T09:14:12.680Z,64.16
2023-11-24T09:19:15.076Z,58.27
2023-11-24T09:24:19.328Z,52.60
2023-11-24T09:29:21.536Z,52.82
2023-11-24T09:34:26.857Z,50.31
2023-11-24T09:39:30.714Z,50.23
2023-11-24T09:44:33.211Z,47.75
2023-11-24T09:49:35.669Z,45.70
2023-11-24T09:54:39.025Z,44.09
2023-11-24T09:59:41.350Z,42.38
2023-11-24T10:04:44.829Z,42.92
2023-11-24T10:09:50.030Z,41.51
2023-11-24T10:14:55.561Z,41.71
2023-11-24T10:19:57.819Z,40.55
2023-11-24T10:25:00.755Z,41.32
2023-11-24T10:30:06.223Z,40.01
2023-11-24T10:35:08.940Z,39.95
2023-11-24T10:40:15.744Z,39.33
2023-11-24T10:45:21.953Z,40.98
2023-11-24T10:50:28.208Z,44.03
2023-11-24T10:55:31.713Z,45.54
2023-11-24T11:00:34.510Z,48.31
2023-11-24T11:05:51.290Z,48.96
2023-11-24T11:11:22.603Z,48.94
2023-11-24T11:16:25.172Z,51.49
2023-11-24T11:21:41.560Z,48.91
2023-11-24T11:26:49.393Z,50.03
2023-11-24T11:31:52.676Z,50.72
2023-11-24T11:37:13.008Z,50.10
2023-11-24T11:42:16.454Z,50.48
2023-11-24T11:47:22.985Z,49.67
2023-11-24T11:52:29.572Z,49.87
2023-11-24T11:57:32.689Z,50.68
2023-11-24T12:02:35.279Z,51.40
2023-11-24T12:07:40.499Z,51.27
2023-11-24T12:12:48.216Z,52.04
2023-11-24T12:17:55.094Z,51.80
2023-11-24T12:22:57.938Z,52.42
2023-11-24T12:28:11.082Z,53.13
2023-11-24T12:33:16.762Z,54.81
2023-11-24T12:38:20.901Z,52.60
2023-11-24T12:43:23.482Z,53.77
2023-11-24T12:48:28.582Z,53.64
2023-11-24T12:53:34.579Z,52.27
2023-11-24T12:58:37.668Z,54.59
2023-11-24T13:03:40.732Z,54.45
2023-11-24T13:08:43.066Z,55.04
2023-11-24T13:13:45.554Z,53.62
2023-11-24T13:18:47.764Z,53.19
2023-11-24T13:23:50.121Z,52.08
2023-11-24T13:28:52.441Z,50.97
2023-11-24T13:33:54.703Z,50.70
2023-11-24T13:38:57.039Z,51.19
2023-11-24T13:43:59.167Z,50.39
2023-11-24T13:49:01.380Z,53.66
2023-11-24T13:54:06.929Z,51.77
2023-11-24T13:59:16.090Z,50.54
2023-11-24T14:04:18.467Z,52.94
2023-11-24T14:09:21.109Z,49.95
2023-11-24T14:14:23.249Z,50.54
2023-11-24T14:19:26.173Z,52.80
2023-11-24T14:24:28.563Z,52.64
2023-11-24T14:29:32.871Z,52.48
2023-11-24T14:34:38.153Z,54.25
2023-11-24T14:39:45.479Z,56.31
2023-11-24T14:44:47.739Z,55.56
2023-11-24T14:49:50.361Z,53.50
2023-11-24T14:54:52.495Z,53.81
2023-11-24T14:59:56.338Z,56.97
2023-11-24T15:04:58.463Z,56.48
2023-11-24T15:10:00.666Z,58.80
2023-11-24T15:15:03.933Z,56.39
2023-11-24T15:20:26.804Z,59.29
2023-11-24T15:25:36.937Z,60.83
2023-11-24T15:30:41.108Z,61.06
2023-11-24T15:35:45.161Z,62.79
2023-11-24T15:40:52.278Z,61.75
2023-11-24T15:45:56.950Z,60.56
2023-11-24T15:50:58.992Z,62.81
2023-11-24T15:56:01.200Z,64.92
2023-11-24T16:01:07.449Z,63.38
2023-11-24T16:06:17.370Z,63.95
2023-11-24T16:11:25.898Z,65.83
2023-11-24T16:16:28.778Z,65.85
2023-11-24T16:21:31.924Z,67.29
2023-11-24T16:26:34.333Z,67.78
2023-11-24T16:31:36.883Z,68.09
2023-11-24T16:36:43.691Z,68.23
2023-11-24T16:41:47.761Z,68.30
2023-11-24T16:46:58.420Z,68.69
2023-11-24T16:52:04.958Z,68.59
2023-11-24T16:57:09.921Z,68.38
2023-11-24T17:02:12.745Z,69.38
2023-11-24T17:07:14.900Z,70.76
2023-11-24T17:12:18.433Z,70.92
2023-11-24T17:17:21.438Z,69.91
2023-11-24T17:22:23.922Z,68.89
2023-11-24T17:27:26.749Z,69.74
2023-11-24T17:32:29.150Z,69.54
2023-11-24T17:37:32.684Z,70.57
2023-11-24T17:42:35.622Z,68.60
2023-11-24T17:47:37.994Z,67.75
2023-11-24T17:52:40.376Z,68.68
2023-11-24T17:57:43.043Z,68.42
2023-11-24T18:02:52.780Z,70.36
2023-11-24T18:07:54.840Z,69.84
2023-11-24T18:12:58.107Z,69.43
2023-11-24T18:18:00.357Z,71.82
2023-11-24T18:23:06.051Z,70.45
2023-11-24T18:28:12.728Z,70.54
2023-11-24T18:33:15.580Z,70.77
2023-11-24T18:38:17.673Z,70.46
2023-11-24T18:43:30.485Z,70.94
2023-11-24T18:48:40.140Z,71.53
2023-11-24T18:53:42.607Z,73.71
2023-11-24T18:58:45.774Z,73.35
2023-11-24T19:03:48.735Z,73.19
2023-11-24T19:08:52.365Z,74.25
2023-11-24T19:13:54.624Z,75.92
2023-11-24T19:18:57.060Z,76.06
2023-11-24T19:23:59.718Z,77.34
2023-11-24T19:29:08.307Z,77.42
2023-11-24T19:34:13.593Z,78.54
2023-11-24T19:39:16.091Z,79.19
2023-11-24T19:44:20.204Z,78.32
2023-11-24T19:49:22.626Z,76.50
2023-11-24T19:54:24.884Z,76.70
2023-11-24T19:59:27.890Z,76.58
2023-11-24T20:04:30.175Z,77.14
2023-11-24T20:09:32.312Z,77.67
2023-11-24T20:14:34.426Z,78.68
2023-11-24T20:19:36.651Z,78.78
2023-11-24T20:24:40.435Z,78.93
2023-11-24T20:29:42.528Z,79.21
2023-11-24T20:34:45.100Z,79.99
2023-11-24T20:39:47.811Z,80.27
2023-11-24T20:44:50.022Z,81.42
2023-11-24T20:49:52.301Z,81.57
2023-11-24T20:54:54.614Z,81.81
2023-11-24T20:59:56.995Z,81.83
2023-11-24T21:05:00.723Z,82.33
2023-11-24T21:10:05.295Z,82.75
2023-11-24T21:15:10.080Z,83.32
2023-11-24T21:20:14.953Z,82.90
2023-11-24T21:25:17.472Z,82.88
2023-11-24T21:30:19.788Z,84.25
2023-11-24T21:35:22.396Z,84.59
2023-11-24T21:40:24.749Z,85.43
2023-11-24T21:45:27.015Z,85.49
2023-11-24T21:50:29.193Z,85.29
2023-11-24T21:55:32.510Z,85.91
2023-11-24T22:00:34.905Z,86.50
2023-11-24T22:05:37.370Z,86.47
2023-11-24T22:10:39.830Z,87.21
2023-11-24T22:15:49.077Z,87.08
2023-11-24T22:20:52.901Z,87.33
2023-11-24T22:25:55.158Z,86.95
2023-11-24T22:30:58.133Z,87.03
2023-11-24T22:36:00.406Z,86.83
2023-11-24T22:41:02.797Z,87.33
2023-11-24T22:46:05.246Z,87.56
2023-11-24T22:51:07.555Z,87.83
2023-11-24T22:56:30.337Z,88.58
2023-11-24T23:01:32.907Z,88.54
2023-11-24T23:06:35.788Z,88.05
2023-11-24T23:11:38.223Z,88.35
2023-11-24T23:16:41.062Z,88.88
2023-11-24T23:21:47.028Z,88.96
2023-11-24T23:26:49.302Z,89.28
2023-11-24T23:31:51.670Z,89.11
2023-11-24T23:36:54.538Z,89.29
2023-11-24T23:41:57.562Z,88.31
2023-11-24T23:46:59.930Z,88.12
2023-11-24T23:52:02.234Z,87.83
2023-11-24T23:57:04.725Z,87.81
